Αναφορές METAR Αεροδρομίων

 

LGTS - THESSALONIKI - GREECE
Ενημερώθηκε: 26/08/2019 10:50
Αίθριος
Αίθριος
 Ανεμος από ΔΒΔ
Ανεμος: ΔΒΔ 19 km/h
Θερμοκρασία: 31°C
Δείκτης θερμότητας: 33°C
Σημ. Δρόσου: 20°C
Υγρασία: 52%
Βαρόμετρο: 1017 hPa
Περίληψη: Αίθριος
Visibility: greater than 10 km
2019/08/26 07:50 LGTS 260750Z 30010KT CAVOK 31/20 Q1017 NOSIG
LGLR - LARTISA - GREECE
Ενημερώθηκε: 26/08/2019 10:50
Αραιές Νεφώσεις
Αραιές Νεφώσεις
 Ανεμος από varies
Ανεμος: varies 6 km/h
Θερμοκρασία: 32°C
Σημ. Δρόσου: 14°C
Υγρασία: 33%
Βαρόμετρο: 1016 hPa
Clouds: Αραιές Νεφώσεις
Visibility: 10 km
Cloud details: Αραιές Νεφώσεις 914 m
2019/08/26 07:50 LGLR 260750Z VRB03KT 9999 FEW030 32/14 Q1016 BLU
 
LGKZ - KOZANI - GREECE
Ενημερώθηκε: 26/08/2019 10:50
Αίθριος
Αίθριος
 Ανεμος από ΝΑ
Ανεμος: ΝΑ 7 km/h
Θερμοκρασία: 29°C
Σημ. Δρόσου: 9°C
Υγρασία: 29%
Βαρόμετρο: 1020 hPa
Περίληψη: Αίθριος
Visibility: greater than 10 km
2019/08/26 07:50 LGKZ 260750Z 14004KT CAVOK 29/09 Q1020
LGKV - KAVALA - GREECE
Ενημερώθηκε: 26/08/2019 10:50
Αίθριος
Αίθριος
 Ανεμος από ΑΒΑ
Ανεμος: ΑΒΑ 24 km/h
Θερμοκρασία: 33°C
Σημ. Δρόσου: 13°C
Υγρασία: 30%
Βαρόμετρο: 1016 hPa
Περίληψη: Αίθριος
Visibility: greater than 10 km
2019/08/26 07:50 LGKV 260750Z 07013KT CAVOK 33/13 Q1016
 
LGIO - IOANNINA - GREECE
Ενημερώθηκε: 26/08/2019 10:50
Αίθριος
Αίθριος
 Ανεμος από varies
Ανεμος: varies 6 km/h
Θερμοκρασία: 31°C
Σημ. Δρόσου: 13°C
Υγρασία: 33%
Βαρόμετρο: 1017 hPa
Περίληψη: Αίθριος
Visibility: greater than 10 km
2019/08/26 07:50 LGIO 260750Z VRB03KT CAVOK 31/13 Q1017
LGBL - BOLOS - GREECE
Ενημερώθηκε: 26/08/2019 10:50
Αίθριος
Αίθριος
 Ανεμος από Α
Ανεμος: Α 9 km/h
Θερμοκρασία: 31°C
Σημ. Δρόσου: 15°C
Υγρασία: 38%
Βαρόμετρο: 1016 hPa
Περίληψη: Αίθριος
Visibility: greater than 10 km
2019/08/26 07:50 LGBL 260750Z 09005KT CAVOK 31/15 Q1016
 
LGMT - MITILINI - GREECE
Ενημερώθηκε: 26/08/2019 10:50
Αίθριος
Αίθριος
 Ανεμος από Β
Ανεμος: Β 7 km/h
Θερμοκρασία: 27°C
Δείκτης θερμότητας: 28°C
Σημ. Δρόσου: 18°C
Υγρασία: 58%
Βαρόμετρο: 1013 hPa
Περίληψη: Αίθριος
Visibility: greater than 10 km
2019/08/26 07:50 LGMT 260750Z 35004KT 300V030 CAVOK 27/18 Q1013
LGAV - ATHENS - GREECE
Ενημερώθηκε: 26/08/2019 10:50
Αίθριος
Αίθριος
 Ανεμος από ΒΑ
Ανεμος: ΒΑ 31 km/h
Θερμοκρασία: 29°C
Δείκτης θερμότητας: 30°C
Σημ. Δρόσου: 19°C
Υγρασία: 55%
Βαρόμετρο: 1013 hPa
Περίληψη: Αίθριος
Visibility: greater than 10 km
2019/08/26 07:50 LGAV 260750Z 04017KT CAVOK 29/19 Q1013 NOSIG
 
LGRP - RODOS - GREECE
Ενημερώθηκε: 26/08/2019 10:50
Αίθριος
Αίθριος
 Ανεμος από ΔΝΔ
Ανεμος: ΔΝΔ 17 km/h
Θερμοκρασία: 30°C
Δείκτης θερμότητας: 37°C
Σημ. Δρόσου: 26°C
Υγρασία: 79%
Βαρόμετρο: 1009 hPa
Περίληψη: Αίθριος
Visibility: greater than 10 km
2019/08/26 07:50 LGRP 260750Z 25009KT CAVOK 30/26 Q1009 NOSIG
LGIR - HRAKLIO/KRITI - GREECE
Ενημερώθηκε: 26/08/2019 10:50
Αίθριος
Αίθριος
 Ανεμος από ΒΔ
Ανεμος: ΒΔ 26 km/h
Θερμοκρασία: 29°C
Δείκτης θερμότητας: 31°C
Σημ. Δρόσου: 21°C
Υγρασία: 62%
Βαρόμετρο: 1012 hPa
Περίληψη: Αίθριος
Visibility: greater than 10 km
2019/08/26 07:50 LGIR 260750Z 31014KT CAVOK 29/21 Q1012 NOSIG
 
LGMK - MIKONOS - GREECE
Ενημερώθηκε: 26/08/2019 10:50
Αραιές Νεφώσεις
Αραιές Νεφώσεις
 Ανεμος από ΒΒΔ
Ανεμος: ΒΒΔ 37 km/h
Θερμοκρασία: 26°C
Σημ. Δρόσου: 16°C
Υγρασία: 54%
Βαρόμετρο: 1012 hPa
Clouds: Αραιές Νεφώσεις
Visibility: 10 km
Cloud details: Αραιές Νεφώσεις 244 m
2019/08/26 07:50 LGMK 260750Z 34020KT 9999 FEW008 26/16 Q1012
LGKR - KERKIRA - GREECE
Ενημερώθηκε: 26/08/2019 10:50
Αίθριος
Αίθριος
 Ανεμος από calm
Ανεμος: Απνοια
Θερμοκρασία: 32°C
Δείκτης θερμότητας: 33°C
Σημ. Δρόσου: 18°C
Υγρασία: 43%
Βαρόμετρο: 1014 hPa
Περίληψη: Αίθριος
Visibility: greater than 10 km
2019/08/26 07:50 LGKR 260750Z 00000KT CAVOK 32/18 Q1014 NOSIG